createdAt,value
2022-10-04T00:00:13.379Z,2.17
2022-10-04T00:05:37.287Z,1.60
2022-10-04T00:11:07.759Z,2.30
2022-10-04T00:16:34.118Z,2.17
2022-10-04T00:21:56.450Z,2.27
2022-10-04T00:27:24.223Z,2.63
2022-10-04T00:33:00.616Z,2.30
2022-10-04T00:38:28.182Z,2.07
2022-10-04T00:43:51.555Z,1.80
2022-10-04T00:49:18.728Z,1.97
2022-10-04T00:54:47.708Z,2.00
2022-10-04T01:00:16.922Z,2.07
2022-10-04T01:05:46.904Z,1.87
2022-10-04T01:11:24.332Z,2.00
2022-10-04T01:16:47.172Z,2.00
2022-10-04T01:22:18.500Z,2.53
2022-10-04T01:27:43.566Z,2.07
2022-10-04T01:33:07.102Z,2.00
2022-10-04T01:38:29.657Z,1.97
2022-10-04T01:43:58.208Z,2.03
2022-10-04T01:49:26.890Z,1.77
2022-10-04T01:55:12.479Z,1.90
2022-10-04T02:00:40.459Z,2.47
2022-10-04T02:06:08.099Z,1.93
2022-10-04T02:11:31.232Z,1.83
2022-10-04T02:16:54.201Z,1.77
2022-10-04T02:22:18.038Z,1.90
2022-10-04T02:27:40.586Z,2.73
2022-10-04T02:33:03.091Z,2.37
2022-10-04T02:38:34.363Z,2.10
2022-10-04T02:44:10.351Z,2.00
2022-10-04T02:49:41.152Z,1.77
2022-10-04T02:55:23.543Z,2.03
2022-10-04T03:00:59.945Z,2.00
2022-10-04T03:06:28.308Z,2.20
2022-10-04T03:11:51.987Z,2.13
2022-10-04T03:17:16.996Z,2.40
2022-10-04T03:22:43.663Z,2.30
2022-10-04T03:28:08.739Z,1.90
2022-10-04T03:33:31.508Z,2.00
2022-10-04T03:38:56.701Z,2.57
2022-10-04T03:44:21.727Z,2.13
2022-10-04T03:49:49.919Z,1.70
2022-10-04T03:55:15.525Z,2.10
2022-10-04T04:00:44.233Z,2.10
2022-10-04T04:06:16.342Z,2.10
2022-10-04T04:11:39.189Z,2.20
2022-10-04T04:17:26.409Z,2.30
2022-10-04T04:23:14.961Z,1.80
2022-10-04T04:28:49.336Z,2.07
2022-10-04T04:34:33.136Z,1.90
2022-10-04T04:39:55.990Z,2.37
2022-10-04T04:45:25.930Z,2.33
2022-10-04T04:50:53.095Z,1.93
2022-10-04T04:56:20.103Z,2.17
2022-10-04T05:01:44.825Z,2.00
2022-10-04T05:07:17.871Z,2.30
2022-10-04T05:12:40.215Z,2.30
2022-10-04T05:18:17.862Z,2.40
2022-10-04T05:23:40.201Z,2.50
2022-10-04T05:29:17.291Z,3.40
2022-10-04T05:34:42.288Z,4.43
2022-10-04T05:40:32.415Z,3.10
2022-10-04T05:46:17.476Z,3.10
2022-10-04T05:52:01.661Z,3.37
2022-10-04T05:57:41.477Z,2.90
2022-10-04T06:03:22.711Z,3.03
2022-10-04T06:09:30.246Z,2.73
2022-10-04T06:15:04.012Z,3.10
2022-10-04T06:21:04.046Z,2.93
2022-10-04T06:26:35.075Z,2.77
2022-10-04T06:32:12.374Z,2.50
2022-10-04T06:37:49.795Z,3.17
2022-10-04T06:43:32.154Z,3.00
2022-10-04T06:49:00.403Z,3.17
2022-10-04T06:54:42.639Z,2.67
2022-10-04T07:00:07.782Z,2.37
2022-10-04T07:05:44.324Z,2.47
2022-10-04T07:11:23.625Z,2.40
2022-10-04T07:16:51.177Z,2.23
2022-10-04T07:22:40.157Z,1.87
2022-10-04T07:28:31.666Z,2.10
2022-10-04T07:34:02.418Z,2.00
2022-10-04T07:39:40.445Z,1.77
2022-10-04T07:45:26.791Z,2.37
2022-10-04T07:51:20.773Z,2.50
2022-10-04T07:56:51.611Z,2.77
2022-10-04T08:02:30.998Z,2.03
2022-10-04T08:08:37.766Z,2.23
2022-10-04T08:14:25.974Z,2.13
2022-10-04T08:19:57.263Z,2.20
2022-10-04T08:25:42.640Z,1.80
2022-10-04T08:31:17.429Z,1.87
2022-10-04T08:37:04.315Z,2.07
2022-10-04T08:42:55.620Z,2.37
2022-10-04T08:48:38.933Z,2.00
2022-10-04T08:54:44.351Z,2.37
2022-10-04T09:00:15.554Z,2.13
2022-10-04T09:05:38.104Z,2.47
2022-10-04T09:11:30.223Z,2.00
2022-10-04T09:17:46.529Z,1.87
2022-10-04T09:23:22.177Z,2.10
2022-10-04T09:29:04.956Z,2.17
2022-10-04T09:34:37.256Z,2.17
2022-10-04T09:40:31.259Z,2.00
2022-10-04T09:46:29.454Z,2.30
2022-10-04T09:51:54.548Z,2.70
2022-10-04T09:57:33.695Z,2.37
2022-10-04T10:03:30.105Z,2.20
2022-10-04T10:09:54.998Z,2.40
2022-10-04T10:15:56.356Z,3.00
2022-10-04T10:21:35.545Z,2.30
2022-10-04T10:27:16.717Z,2.70
2022-10-04T10:33:02.975Z,2.70
2022-10-04T10:38:46.792Z,2.93
2022-10-04T10:44:23.398Z,2.70
2022-10-04T10:49:48.706Z,3.10
2022-10-04T10:55:29.351Z,2.60
2022-10-04T11:01:16.597Z,2.50
2022-10-04T11:07:02.992Z,2.97
2022-10-04T11:12:47.049Z,2.35
2022-10-04T11:18:37.075Z,2.20
2022-10-04T11:24:23.930Z,2.00
2022-10-04T11:30:11.531Z,2.53
2022-10-04T11:35:58.142Z,1.95
2022-10-04T11:41:50.234Z,1.88
2022-10-04T11:47:21.911Z,1.80
2022-10-04T11:53:19.276Z,1.77
2022-10-04T11:59:03.318Z,1.90
2022-10-04T12:04:53.710Z,1.80
2022-10-04T12:10:36.339Z,1.52
2022-10-04T12:16:52.282Z,1.77
2022-10-04T12:22:29.275Z,1.88
2022-10-04T12:28:11.840Z,1.70
2022-10-04T12:33:58.120Z,1.73
2022-10-04T12:39:27.232Z,2.22
2022-10-04T12:45:22.211Z,4.30
2022-10-04T12:51:05.443Z,2.03
2022-10-04T12:56:45.829Z,2.10
2022-10-04T13:02:26.574Z,1.85
2022-10-04T13:07:58.538Z,1.75
2022-10-04T13:13:41.207Z,1.90
2022-10-04T13:19:38.476Z,2.00
2022-10-04T13:25:31.529Z,2.08
2022-10-04T13:31:11.218Z,1.88
2022-10-04T13:36:44.429Z,1.88
2022-10-04T13:42:15.443Z,1.85
2022-10-04T13:48:00.599Z,3.80
2022-10-04T13:53:56.753Z,2.15
2022-10-04T13:59:23.045Z,2.47
2022-10-04T14:05:22.861Z,1.90
2022-10-04T14:11:07.835Z,2.15
2022-10-04T14:16:48.845Z,1.70
2022-10-04T14:22:46.354Z,1.50
2022-10-04T14:28:31.828Z,1.70
2022-10-04T14:33:54.774Z,1.65
2022-10-04T14:39:35.914Z,2.08
2022-10-04T14:45:11.985Z,1.60
2022-10-04T14:50:57.829Z,1.30
2022-10-04T14:57:00.771Z,1.20
2022-10-04T15:02:35.081Z,1.40
2022-10-04T15:08:22.274Z,1.30
2022-10-04T15:14:01.360Z,1.17
2022-10-04T15:19:36.378Z,1.10
2022-10-04T15:24:59.546Z,0.98
2022-10-04T15:30:21.956Z,1.40
2022-10-04T15:36:29.622Z,1.58
2022-10-04T15:42:00.738Z,1.60
2022-10-04T15:47:52.912Z,1.08
2022-10-04T15:53:20.179Z,1.30
2022-10-04T15:58:55.239Z,1.48
2022-10-04T16:04:42.898Z,1.40
2022-10-04T16:10:26.418Z,1.00
2022-10-04T16:16:25.941Z,1.13
2022-10-04T16:21:52.934Z,1.20
2022-10-04T16:27:48.806Z,1.40
2022-10-04T16:33:30.309Z,1.70
2022-10-04T16:39:15.479Z,1.40
2022-10-04T16:44:52.201Z,1.50
2022-10-04T16:50:52.662Z,1.50
2022-10-04T16:56:29.959Z,1.20
2022-10-04T17:02:13.839Z,1.70
2022-10-04T17:07:52.932Z,1.50
2022-10-04T17:13:24.970Z,1.80
2022-10-04T17:19:16.171Z,1.80
2022-10-04T17:24:46.809Z,1.70
2022-10-04T17:30:18.810Z,1.50
2022-10-04T17:35:47.211Z,1.77
2022-10-04T17:41:15.992Z,1.53
2022-10-04T17:47:03.875Z,2.20
2022-10-04T17:52:53.159Z,1.67
2022-10-04T17:58:43.055Z,1.60
2022-10-04T18:04:30.543Z,1.73
2022-10-04T18:09:58.993Z,1.67
2022-10-04T18:15:27.505Z,1.67
2022-10-04T18:20:52.635Z,1.93
2022-10-04T18:26:20.195Z,2.10
2022-10-04T18:31:43.031Z,2.00
2022-10-04T18:37:32.813Z,2.23
2022-10-04T18:42:58.256Z,2.57
2022-10-04T18:48:39.352Z,3.20
2022-10-04T18:54:01.403Z,2.90
2022-10-04T18:59:49.311Z,2.53
2022-10-04T19:05:25.771Z,3.43
2022-10-04T19:10:58.184Z,2.60
2022-10-04T19:16:35.247Z,3.00
2022-10-04T19:22:11.277Z,3.77
2022-10-04T19:27:49.859Z,3.43
2022-10-04T19:33:28.016Z,3.97
2022-10-04T19:38:53.766Z,3.40
2022-10-04T19:44:44.501Z,3.47
2022-10-04T19:50:18.268Z,3.73
2022-10-04T19:55:56.789Z,4.00
2022-10-04T20:01:23.281Z,3.77
2022-10-04T20:06:50.444Z,4.13
2022-10-04T20:12:33.797Z,3.90
2022-10-04T20:17:56.620Z,4.03
2022-10-04T20:23:40.910Z,3.50
2022-10-04T20:29:03.209Z,2.80
2022-10-04T20:34:37.275Z,2.93
2022-10-04T20:39:59.594Z,3.60
2022-10-04T20:45:22.725Z,3.60
2022-10-04T20:50:49.423Z,3.33
2022-10-04T20:56:19.093Z,2.63
2022-10-04T21:01:41.494Z,3.10
2022-10-04T21:07:06.188Z,2.97
2022-10-04T21:12:34.361Z,3.27
2022-10-04T21:18:08.449Z,3.10
2022-10-04T21:23:33.683Z,3.23
2022-10-04T21:28:57.815Z,3.07
2022-10-04T21:34:41.400Z,2.87
2022-10-04T21:40:06.552Z,2.90
2022-10-04T21:45:28.855Z,2.73
2022-10-04T21:50:53.966Z,3.30
2022-10-04T21:56:16.215Z,2.97
2022-10-04T22:01:38.413Z,2.90
2022-10-04T22:07:00.561Z,2.67
2022-10-04T22:12:22.994Z,2.90
2022-10-04T22:17:45.321Z,2.93
2022-10-04T22:23:15.299Z,2.80
2022-10-04T22:28:45.617Z,3.10
2022-10-04T22:34:17.516Z,2.80
2022-10-04T22:39:39.815Z,2.90
2022-10-04T22:45:02.389Z,3.17
2022-10-04T22:50:24.911Z,2.47
2022-10-04T22:55:51.721Z,2.43
2022-10-04T23:01:18.672Z,2.63
2022-10-04T23:06:40.747Z,3.10
2022-10-04T23:12:06.535Z,3.03
2022-10-04T23:17:33.738Z,2.63
2022-10-04T23:22:59.556Z,2.70
2022-10-04T23:28:22.551Z,2.80
2022-10-04T23:33:45.151Z,3.10
2022-10-04T23:39:13.786Z,3.27
2022-10-04T23:44:38.155Z,3.43
2022-10-04T23:50:01.051Z,3.30
2022-10-04T23:55:25.569Z,3.03
